createdAt,value
2023-04-15T17:47:10.528Z,12.80
2023-04-15T17:49:38.027Z,12.00
2023-04-15T17:52:05.640Z,13.90
2023-04-15T17:54:33.067Z,14.20
2023-04-15T17:57:01.506Z,15.70
2023-04-15T17:59:29.383Z,24.40
2023-04-15T18:01:59.150Z,15.70
2023-04-15T18:04:26.967Z,14.80
2023-04-15T18:06:54.655Z,15.60
2023-04-15T18:09:22.002Z,20.50
2023-04-15T18:11:49.412Z,30.80
2023-04-15T18:14:30.725Z,28.30
2023-04-15T18:17:01.217Z,19.60
2023-04-15T18:19:28.778Z,20.50
2023-04-15T18:21:56.075Z,23.40
2023-04-15T18:24:23.350Z,23.20
2023-04-15T18:26:50.926Z,18.60
2023-04-15T18:29:18.769Z,19.80
2023-04-15T18:31:46.027Z,17.60
2023-04-15T18:34:13.571Z,17.50
2023-04-15T18:36:41.291Z,20.30
2023-04-15T18:39:09.304Z,34.00
2023-04-15T18:41:36.863Z,34.90
2023-04-15T18:44:04.086Z,38.60
2023-04-15T18:46:31.574Z,22.40
2023-04-15T18:48:59.025Z,24.30
2023-04-15T18:51:26.176Z,20.10
2023-04-15T18:53:54.130Z,30.00
2023-04-15T18:56:21.554Z,32.50
2023-04-15T18:59:09.957Z,33.00
2023-04-15T19:01:36.233Z,21.30
2023-04-15T19:04:04.040Z,21.20
2023-04-15T19:06:32.151Z,31.80
2023-04-15T19:08:59.509Z,28.30
2023-04-15T19:11:26.719Z,24.90
2023-04-15T19:13:54.587Z,22.40
2023-04-15T19:16:22.166Z,42.40
2023-04-15T19:18:49.662Z,28.40
2023-04-15T19:21:17.027Z,30.50
2023-04-15T19:23:44.318Z,30.20
2023-04-15T19:26:12.087Z,25.50
2023-04-15T19:28:39.575Z,26.50
2023-04-15T19:31:07.240Z,19.20
2023-04-15T19:33:34.632Z,19.20
2023-04-15T19:36:04.403Z,22.30
2023-04-15T19:38:32.509Z,29.40
2023-04-15T19:41:00.009Z,17.70
2023-04-15T19:43:27.558Z,24.40
2023-04-15T19:45:55.140Z,26.70
2023-04-15T19:48:24.698Z,21.00
2023-04-15T19:50:52.194Z,19.50
2023-04-15T19:53:19.509Z,23.20
2023-04-15T19:55:48.500Z,21.80
2023-04-15T19:58:15.796Z,15.40
2023-04-15T20:00:43.357Z,22.70
2023-04-15T20:03:11.111Z,13.80
2023-04-15T20:05:38.436Z,14.70
2023-04-15T20:08:05.814Z,15.40
2023-04-15T20:10:33.098Z,16.10
2023-04-15T20:13:01.145Z,15.20
2023-04-15T20:15:28.647Z,17.70
2023-04-15T20:17:55.860Z,18.60
2023-04-15T20:20:23.266Z,15.40
2023-04-15T20:22:50.841Z,16.80
2023-04-15T20:25:18.138Z,15.30
2023-04-15T20:27:45.651Z,18.90
2023-04-15T20:30:12.949Z,15.00
2023-04-15T20:32:40.323Z,16.10
2023-04-15T20:35:08.093Z,13.70
2023-04-15T20:37:37.149Z,14.40
2023-04-15T20:40:05.365Z,14.70
2023-04-15T20:42:34.643Z,13.40
2023-04-15T20:45:02.366Z,16.90
2023-04-15T20:47:30.223Z,17.00
2023-04-15T20:49:57.619Z,18.50
2023-04-15T20:52:24.901Z,16.70
2023-04-15T20:54:52.277Z,22.30
2023-04-15T20:57:20.646Z,17.40
2023-04-15T20:59:47.855Z,16.80
2023-04-15T21:02:15.184Z,13.70
2023-04-15T21:04:42.530Z,15.80
2023-04-15T21:07:10.563Z,20.80
2023-04-15T21:09:41.482Z,12.60
2023-04-15T21:12:09.508Z,19.50
2023-04-15T21:14:37.817Z,22.80
2023-04-15T21:17:10.907Z,16.40
2023-04-15T21:19:39.121Z,15.70
2023-04-15T21:22:06.797Z,13.60
2023-04-15T21:24:34.515Z,13.40
2023-04-15T21:27:02.145Z,14.10
2023-04-15T21:29:29.824Z,16.80
2023-04-15T21:31:57.325Z,15.70
2023-04-15T21:34:25.069Z,23.20
2023-04-15T21:36:52.397Z,14.60
2023-04-15T21:39:19.655Z,15.10
2023-04-15T21:41:47.074Z,14.90
2023-04-15T21:44:15.103Z,16.20
2023-04-15T21:46:45.643Z,13.90
2023-04-15T21:49:14.084Z,21.60
2023-04-15T21:51:41.494Z,17.70
2023-04-15T21:54:08.876Z,13.50
2023-04-15T21:56:38.037Z,17.60
2023-04-15T21:59:05.638Z,15.60
2023-04-15T22:01:33.144Z,17.20
2023-04-15T22:04:00.900Z,13.50
2023-04-15T22:06:28.919Z,21.00
2023-04-15T22:08:57.825Z,14.10
2023-04-15T22:11:30.557Z,18.80
2023-04-15T22:13:59.164Z,12.20
2023-04-15T22:16:27.157Z,15.10
2023-04-15T22:18:55.108Z,14.90
2023-04-15T22:21:23.027Z,13.90
2023-04-15T22:23:51.903Z,10.10
2023-04-15T22:26:19.248Z,9.50
2023-04-15T22:28:46.537Z,10.70
2023-04-15T22:31:15.140Z,10.60
2023-04-15T22:33:42.650Z,8.70
2023-04-15T22:36:10.072Z,8.00
2023-04-15T22:38:37.634Z,8.10
2023-04-15T22:41:05.006Z,8.40
2023-04-15T22:43:32.337Z,8.30
2023-04-15T22:46:00.982Z,9.50
2023-04-15T22:48:28.500Z,8.40
2023-04-15T22:50:56.184Z,6.40
2023-04-15T22:53:23.601Z,9.20
2023-04-15T22:55:51.883Z,8.60
2023-04-15T22:58:19.239Z,10.20
2023-04-15T23:00:46.551Z,6.80
2023-04-15T23:03:13.998Z,6.40
2023-04-15T23:05:42.238Z,6.20
2023-04-15T23:08:09.559Z,5.80
2023-04-15T23:10:38.579Z,6.20
2023-04-15T23:13:06.021Z,5.60
2023-04-15T23:15:33.279Z,5.60
2023-04-15T23:18:02.375Z,5.20
2023-04-15T23:20:29.866Z,5.50
2023-04-15T23:22:57.248Z,4.80
2023-04-15T23:25:24.549Z,4.90
2023-04-15T23:27:51.894Z,4.80
2023-04-15T23:30:19.261Z,5.00
2023-04-15T23:32:46.688Z,4.60
2023-04-15T23:35:14.040Z,4.90
2023-04-15T23:37:41.367Z,4.90
2023-04-15T23:40:09.256Z,6.20
2023-04-15T23:42:36.481Z,5.60
2023-04-15T23:45:04.105Z,5.90
2023-04-15T23:47:31.503Z,4.80
2023-04-15T23:49:58.828Z,5.10
2023-04-15T23:52:26.169Z,5.20
2023-04-15T23:54:53.723Z,5.70
2023-04-15T23:57:21.160Z,5.60
2023-04-15T23:59:48.649Z,5.20
